Terminal Aerodrome Forecast
Issued by NWS

Home | Current Version | Previous Version | Text Only | Print | Product List | Glossary On
Versions: 1 2 3 4 5 6 7 8 9 10 11 12 13 14 15 16 17 18 19 20 21 22 23 24 25 26 27 28 29 30 31
000
FTUS44 KBMX 232339
TAFASN
TAF
KASN 232339Z 2400/2424 21005KT P6SM VCTS SCT050CB
     FM240100 23003KT P6SM SCT050 BKN250
     FM240800 00000KT 4SM BR SCT100
     FM241300 24003KT P6SM SCT035
     FM241700 24006KT P6SM VCTS SCT050CB=

USA.gov is the U.S. government's official web portal to all federal, state and local government web resources and services.